Terminal Aerodrome Forecast
Issued by NWS Cleveland, OH

Home | Current Version | Previous Version | Graphics & Text | Print | Product List | Glossary On
Versions: 1 2 3 4 5 6 7 8 9 10 11 12 13 14 15 16 17 18 19 20 21 22 23 24
000
FTUS41 KCLE 021158 AAA
TAFYNG
TAF AMD
KYNG 021158Z 0212/0312 03008KT P6SM OVC009
      TEMPO 0213/0215 OVC012
     FM021500 05010KT P6SM BKN015
     FM022000 04010KT P6SM SCT030 BKN250
     FM030100 05005KT P6SM FEW030 SCT250=

USA.gov is the U.S. government's official web portal to all federal, state and local government web resources and services.